Time;durP1;ratioP1;P1;durP2;ratioP2;P2;SDS_P1;SDS_P2;PMS_P1;PMS_P2;Temp;Humidity;BMP_temperature;BMP_pressure;BME280_temperature;BME280_humidity;BME280_pressure;Samples;Min_cycle;Max_cycle;Signal;HPM_P1;HPM_P2
2022/10/27 00:01:08;;;;;;;0.80;0.30;;;;;;;15.70;61.79;96164.19;5131701;27;20417;-56
2022/10/27 00:03:36;;;;;;;0.40;0.30;;;;;;;15.01;64.86;96175.06;5132215;27;20506;-56
2022/10/27 00:06:06;;;;;;;0.40;0.20;;;;;;;15.18;64.02;96172.84;5132205;27;20445;-56
2022/10/27 00:08:35;;;;;;;1.47;0.97;;;;;;;15.43;63.29;96177.22;5132281;27;20940;-56
2022/10/27 00:11:08;;;;;;;0.40;0.30;;;;;;;15.40;63.09;96167.09;5132332;27;20486;-55
2022/10/27 00:13:36;;;;;;;1.17;0.30;;;;;;;15.47;62.83;96176.41;5131667;27;20477;-55
2022/10/27 00:16:07;;;;;;;0.60;0.37;;;;;;;15.50;62.86;96170.53;5132441;27;20449;-55
2022/10/27 00:18:36;;;;;;;1.43;0.63;;;;;;;14.74;65.25;96174.69;5132498;27;20453;-56
2022/10/27 00:21:07;;;;;;;0.40;0.30;;;;;;;15.16;64.09;96174.97;5131877;27;20433;-55
2022/10/27 00:23:36;;;;;;;0.60;0.60;;;;;;;14.96;63.73;96138.53;5132420;27;21078;-55
2022/10/27 00:26:07;;;;;;;0.40;0.30;;;;;;;15.34;63.22;96173.53;5132020;27;20551;-55
2022/10/27 00:28:36;;;;;;;0.50;0.30;;;;;;;15.42;62.89;96175.63;5130566;27;20433;-55
2022/10/27 00:31:07;;;;;;;0.60;0.30;;;;;;;15.42;63.51;96172.94;5131898;27;20803;-56
2022/10/27 00:33:35;;;;;;;0.83;0.50;;;;;;;15.35;63.27;96167.13;5131844;27;20468;-56
2022/10/27 00:36:05;;;;;;;1.80;0.77;;;;;;;15.36;63.72;96174.03;5132217;27;20964;-56
2022/10/27 00:38:33;;;;;;;0.60;0.30;;;;;;;15.39;63.45;96168.16;5133757;27;20441;-56
2022/10/27 00:41:02;;;;;;;0.53;0.50;;;;;;;15.45;63.21;96175.91;5135901;27;20428;-56
2022/10/27 00:43:34;;;;;;;0.40;0.33;;;;;;;15.30;63.45;96175.19;5136670;27;20909;-56
2022/10/27 00:46:15;;;;;;;0.70;0.70;;;;;;;15.06;64.28;96165.16;5136030;27;20437;-56
2022/10/27 00:48:44;;;;;;;0.80;0.30;;;;;;;15.25;64.20;96171.44;5136486;27;21029;-55
2022/10/27 00:51:17;;;;;;;0.40;0.30;;;;;;;15.18;64.79;96167.50;5136143;27;20434;-55
2022/10/27 00:53:46;;;;;;;1.23;0.30;;;;;;;15.35;63.97;96167.13;5136094;27;20487;-56
2022/10/27 00:56:15;;;;;;;0.50;0.33;;;;;;;15.26;64.15;96178.41;5136105;27;20443;-55
2022/10/27 00:58:45;;;;;;;0.50;0.30;;;;;;;14.50;64.12;96035.81;5136062;27;20451;-55
2022/10/27 01:01:13;;;;;;;0.40;0.20;;;;;;;15.31;64.39;96160.72;5136013;27;20437;-55
2022/10/27 01:03:43;;;;;;;0.73;0.73;;;;;;;14.81;66.37;96162.66;5135910;27;20426;-55
2022/10/27 01:06:13;;;;;;;0.80;0.80;;;;;;;14.38;68.51;96161.50;5135731;27;20430;-55
2022/10/27 01:08:42;;;;;;;0.60;0.60;;;;;;;14.50;68.40;96169.97;5135610;27;20421;-55
2022/10/27 01:11:10;;;;;;;4.83;0.40;;;;;;;14.84;66.35;96164.78;5135744;27;20438;-55
2022/10/27 01:13:39;;;;;;;0.50;0.50;;;;;;;14.69;66.14;96132.81;5135443;27;20465;-55
2022/10/27 01:16:20;;;;;;;0.83;0.67;;;;;;;15.00;65.84;96170.84;5135500;27;20504;-56
2022/10/27 01:18:59;;;;;;;0.50;0.47;;;;;;;14.99;66.63;96164.69;5135631;27;20428;-55
2022/10/27 01:21:55;;;;;;;0.70;0.70;;;;;;;14.92;67.03;96166.88;5135895;27;20937;-56
2022/10/27 01:25:02;;;;;;;0.40;0.20;;;;;;;14.37;69.75;96165.22;5135395;27;20776;-56
2022/10/27 01:27:57;;;;;;;0.73;0.73;;;;;;;13.43;75.69;96181.06;5125238;27;20438;-55
2022/10/27 01:30:30;;;;;;;0.40;0.20;;;;;;;13.46;79.87;96187.72;5135728;27;20827;-55
2022/10/27 01:33:10;;;;;;;0.50;0.40;;;;;;;13.74;77.90;96177.31;5135409;27;20440;-55
2022/10/27 01:35:48;;;;;;;0.40;0.30;;;;;;;13.87;76.77;96167.97;5135324;27;20480;-55
2022/10/27 01:38:21;;;;;;;0.50;0.40;;;;;;;14.01;75.55;96174.38;5135502;27;20430;-55
2022/10/27 01:40:56;;;;;;;0.40;0.20;;;;;;;14.29;72.94;96172.97;5135587;27;20444;-55
2022/10/27 01:43:27;;;;;;;0.60;0.50;;;;;;;14.39;71.94;96176.44;5134842;27;20429;-55
2022/10/27 01:45:57;;;;;;;0.50;0.40;;;;;;;13.77;75.83;96183.97;5135410;27;20441;-55
2022/10/27 01:48:26;;;;;;;0.77;0.77;;;;;;;13.29;81.61;96185.31;5135437;27;20433;-55
2022/10/27 01:50:55;;;;;;;0.77;0.40;;;;;;;13.36;82.97;96191.16;5133986;27;20440;-55
2022/10/27 01:53:32;;;;;;;1.63;0.93;;;;;;;12.77;84.07;96118.94;5134650;27;20910;-55
2022/10/27 01:56:21;;;;;;;0.50;0.37;;;;;;;13.37;82.78;96190.13;5134944;27;20434;-55
2022/10/27 01:59:06;;;;;;;0.70;0.70;;;;;;;13.74;79.83;96187.19;5134811;27;20429;-55
2022/10/27 02:01:47;;;;;;;0.60;0.30;;;;;;;14.16;76.37;96189.53;5134469;27;20421;-55
2022/10/27 02:04:25;;;;;;;0.50;0.40;;;;;;;13.61;79.23;96188.50;5134656;27;20433;-55
2022/10/27 02:07:00;;;;;;;0.90;0.30;;;;;;;13.96;76.88;96188.47;5134351;27;20452;-55
2022/10/27 02:09:38;;;;;;;0.53;0.53;;;;;;;13.57;76.31;96115.53;5134374;27;20422;-55
2022/10/27 02:12:12;;;;;;;0.70;0.70;;;;;;;14.02;75.94;96187.41;5134605;27;20425;-55
2022/10/27 02:14:42;;;;;;;0.50;0.40;;;;;;;14.08;76.47;96190.06;5134589;27;21089;-55
2022/10/27 02:17:12;;;;;;;0.40;0.30;;;;;;;13.89;75.42;96198.63;5134604;27;20948;-55
2022/10/27 02:19:45;;;;;;;1.20;0.90;;;;;;;13.79;74.90;96185.31;5134690;27;20440;-55
2022/10/27 02:22:14;;;;;;;4.23;0.43;;;;;;;14.00;73.53;96173.56;5134217;27;20430;-55
2022/10/27 02:24:42;;;;;;;0.40;0.30;;;;;;;14.27;73.61;96199.13;5134257;27;20488;-55
2022/10/27 02:27:17;;;;;;;0.40;0.30;;;;;;;14.22;73.52;96202.56;5134466;27;20945;-55
2022/10/27 02:29:48;;;;;;;0.40;0.20;;;;;;;14.12;73.51;96202.59;5134208;27;20431;-55
2022/10/27 02:32:21;;;;;;;0.40;0.30;;;;;;;14.19;72.55;96192.47;5134083;27;20434;-55
2022/10/27 02:34:52;;;;;;;0.43;0.27;;;;;;;14.31;72.05;96205.53;5133896;27;20470;-55
2022/10/27 02:37:25;;;;;;;1.00;0.30;;;;;;;14.14;73.57;96207.66;5134102;27;20433;-55
2022/10/27 02:39:53;;;;;;;0.80;0.50;;;;;;;14.16;74.13;96201.00;5134140;27;20441;-55
2022/10/27 02:42:22;;;;;;;0.50;0.40;;;;;;;14.35;73.01;96209.25;5133793;27;20421;-55
2022/10/27 02:44:50;;;;;;;3.00;1.43;;;;;;;14.12;74.84;96217.78;5134108;27;20430;-55
2022/10/27 02:47:18;;;;;;;0.40;0.30;;;;;;;14.49;72.91;96215.63;5133716;27;20436;-55
2022/10/27 02:49:47;;;;;;;0.40;0.20;;;;;;;14.33;73.74;96214.84;5133578;27;20425;-55
2022/10/27 02:52:17;;;;;;;1.90;0.83;;;;;;;13.78;76.51;96197.06;5133299;27;20433;-55
2022/10/27 02:54:47;;;;;;;0.50;0.30;;;;;;;13.50;80.27;96221.56;5133264;27;20473;-55
2022/10/27 02:57:16;;;;;;;1.87;1.00;;;;;;;13.46;82.84;96230.34;5133158;27;20440;-55
2022/10/27 02:59:44;;;;;;;0.47;0.30;;;;;;;13.48;82.89;96228.22;5133351;27;20441;-55
2022/10/27 03:02:21;;;;;;;0.63;0.63;;;;;;;13.76;80.73;96231.13;5132606;27;20445;-55
2022/10/27 03:04:51;;;;;;;1.77;0.30;;;;;;;13.88;79.53;96221.03;5133601;27;20460;-55
2022/10/27 03:07:20;;;;;;;0.50;0.40;;;;;;;14.33;76.28;96230.06;5133429;27;20426;-55
2022/10/27 03:09:48;;;;;;;1.93;0.47;;;;;;;14.22;76.98;96234.56;5133151;27;20800;-55
2022/10/27 03:12:17;;;;;;;2.10;1.57;;;;;;;14.01;78.72;96243.69;5132789;27;20425;-55
2022/10/27 03:14:45;;;;;;;0.40;0.30;;;;;;;14.00;78.14;96234.88;5133109;27;20468;-55
2022/10/27 03:17:13;;;;;;;2.33;1.47;;;;;;;14.00;78.08;96232.22;5132957;27;20438;-56
2022/10/27 03:19:42;;;;;;;2.43;1.90;;;;;;;14.08;77.79;96233.53;5132645;27;20437;-55
2022/10/27 03:22:10;;;;;;;1.50;1.40;;;;;;;14.10;77.85;96230.59;5133046;27;20445;-55
2022/10/27 03:24:39;;;;;;;0.50;0.50;;;;;;;13.97;78.26;96229.28;5132329;27;20823;-54
2022/10/27 03:27:08;;;;;;;2.37;2.27;;;;;;;13.27;84.27;96236.16;5132034;27;20445;-55
2022/10/27 03:29:36;;;;;;;0.83;0.53;;;;;;;13.23;86.63;96239.63;5132454;27;20456;-55
2022/10/27 03:32:05;;;;;;;1.80;1.50;;;;;;;13.29;85.25;96263.31;5131917;27;20425;-55
2022/10/27 03:34:33;;;;;;;0.90;0.90;;;;;;;13.42;84.24;96230.06;5131682;27;20429;-55
2022/10/27 03:37:02;;;;;;;1.17;0.70;;;;;;;13.60;82.07;96226.09;5131853;27;20437;-55
2022/10/27 03:39:30;;;;;;;0.57;0.33;;;;;;;13.96;79.25;96233.78;5131732;27;20962;-54
2022/10/27 03:41:59;;;;;;;0.60;0.30;;;;;;;13.96;79.03;96235.69;5130879;27;20941;-54
2022/10/27 03:44:28;;;;;;;0.40;0.30;;;;;;;13.92;78.70;96231.94;5131871;27;20422;-54
2022/10/27 03:46:56;;;;;;;0.63;0.47;;;;;;;13.98;78.00;96242.34;5131772;27;20439;-56
2022/10/27 03:49:24;;;;;;;0.80;0.80;;;;;;;13.73;79.67;96253.00;5131816;27;20524;-54
2022/10/27 03:51:58;;;;;;;0.83;0.83;;;;;;;13.34;81.73;96255.34;5131627;27;20925;-54
2022/10/27 03:54:29;;;;;;;0.57;0.57;;;;;;;13.07;83.98;96256.59;5131690;27;20434;-54
2022/10/27 03:56:59;;;;;;;0.50;0.40;;;;;;;13.34;82.59;96254.53;5131636;27;20469;-54
2022/10/27 03:59:27;;;;;;;0.50;0.40;;;;;;;13.63;79.67;96260.19;5131588;27;20441;-54
2022/10/27 04:01:56;;;;;;;0.40;0.30;;;;;;;14.05;76.92;96258.06;5131898;27;20429;-54
2022/10/27 04:04:25;;;;;;;3.13;0.47;;;;;;;13.84;77.21;96259.91;5131722;27;20433;-54
2022/10/27 04:06:53;;;;;;;1.97;1.10;;;;;;;14.04;75.86;96259.13;5131809;27;20437;-54
2022/10/27 04:09:21;;;;;;;0.93;0.93;;;;;;;14.15;75.40;96260.72;5131781;27;20504;-54
2022/10/27 04:11:49;;;;;;;0.40;0.30;;;;;;;14.16;74.87;96253.53;5131781;27;20430;-55
2022/10/27 04:14:19;;;;;;;0.40;0.30;;;;;;;13.68;77.46;96271.66;5130108;27;20533;-55
2022/10/27 04:16:50;;;;;;;0.57;0.47;;;;;;;13.31;80.52;96268.38;5131613;27;20488;-55
2022/10/27 04:19:18;;;;;;;0.50;0.50;;;;;;;13.48;80.57;96268.97;5131425;27;20429;-55
2022/10/27 04:21:47;;;;;;;0.47;0.30;;;;;;;13.50;80.27;96271.34;5131412;27;20429;-54
2022/10/27 04:24:15;;;;;;;1.87;1.77;;;;;;;13.48;81.00;96274.28;5088093;27;1215366;-54
2022/10/27 04:26:44;;;;;;;1.77;1.30;;;;;;;13.24;83.90;96273.16;5131978;27;20429;-54
2022/10/27 04:29:12;;;;;;;6.30;1.50;;;;;;;13.07;84.63;96269.91;5132102;27;20430;-54
2022/10/27 04:31:42;;;;;;;1.07;0.97;;;;;;;13.22;83.06;96277.94;5131844;27;20437;-54
2022/10/27 04:34:10;;;;;;;0.73;0.73;;;;;;;12.94;86.47;96281.00;5132187;27;20446;-54
2022/10/27 04:36:38;;;;;;;0.80;0.80;;;;;;;12.92;86.08;96275.16;5131834;27;20475;-55
2022/10/27 04:39:07;;;;;;;1.87;1.07;;;;;;;13.07;84.74;96281.38;5131835;27;20449;-55
2022/10/27 04:41:35;;;;;;;0.60;0.50;;;;;;;13.19;83.30;96287.25;5131937;27;20432;-54
2022/10/27 04:44:03;;;;;;;0.60;0.30;;;;;;;13.16;83.83;96285.13;5131771;27;20472;-54
2022/10/27 04:46:32;;;;;;;0.90;0.70;;;;;;;13.39;81.26;96286.50;5132112;27;20433;-54
2022/10/27 04:49:01;;;;;;;0.40;0.30;;;;;;;13.74;78.14;96281.22;5132131;27;20426;-54
2022/10/27 04:51:30;;;;;;;0.50;0.50;;;;;;;14.04;76.70;96290.31;5131833;27;20428;-54
2022/10/27 04:53:58;;;;;;;1.03;0.47;;;;;;;13.72;77.58;96302.03;5131961;27;20425;-54
2022/10/27 04:56:27;;;;;;;2.53;1.10;;;;;;;13.60;78.14;96290.00;5131936;27;20815;-54
2022/10/27 04:58:56;;;;;;;1.57;1.43;;;;;;;13.65;77.81;96296.16;5131773;27;20421;-54
2022/10/27 05:01:24;;;;;;;0.60;0.60;;;;;;;13.63;78.00;96302.81;5131922;27;20888;-54
2022/10/27 05:03:52;;;;;;;0.73;0.50;;;;;;;13.74;77.74;96304.41;5131358;27;20779;-53
2022/10/27 05:06:22;;;;;;;0.50;0.40;;;;;;;13.88;76.16;96297.50;5131976;27;20429;-54
2022/10/27 05:08:52;;;;;;;0.60;0.50;;;;;;;13.84;76.91;96307.09;5131995;27;20468;-54
2022/10/27 05:11:25;;;;;;;5.00;0.60;;;;;;;14.09;76.60;96315.09;5131698;27;20436;-54
2022/10/27 05:13:54;;;;;;;0.80;0.80;;;;;;;13.78;78.29;96316.16;5131862;27;20422;-55
2022/10/27 05:16:22;;;;;;;0.93;0.77;;;;;;;13.46;81.84;96321.66;5131397;27;20550;-54
2022/10/27 05:18:50;;;;;;;0.70;0.57;;;;;;;13.52;81.50;96325.97;5131904;27;20424;-54
2022/10/27 05:21:18;;;;;;;5.50;0.70;;;;;;;13.62;80.61;96320.66;5131973;27;20434;-55
2022/10/27 05:23:48;;;;;;;2.10;1.43;;;;;;;13.62;80.79;96325.97;5131843;27;20436;-54
2022/10/27 05:26:16;;;;;;;1.87;1.70;;;;;;;13.71;79.87;96324.38;5135044;27;20487;-55
2022/10/27 05:28:45;;;;;;;2.83;0.97;;;;;;;13.83;79.02;96329.47;5135483;27;20429;-55
2022/10/27 05:31:13;;;;;;;1.43;1.43;;;;;;;14.16;76.98;96326.31;5135481;27;20444;-54
2022/10/27 05:33:42;;;;;;;1.00;0.30;;;;;;;14.26;76.53;96330.84;5135225;27;20432;-56
2022/10/27 05:36:10;;;;;;;0.90;0.90;;;;;;;14.36;75.64;96322.88;5135307;27;20472;-54
2022/10/27 05:38:38;;;;;;;9.00;0.90;;;;;;;14.30;76.14;96331.88;5135143;27;20521;-54
2022/10/27 05:41:08;;;;;;;8.07;0.50;;;;;;;14.57;75.21;96338.56;5134963;27;20433;-54
2022/10/27 05:43:37;;;;;;;0.77;0.70;;;;;;;14.34;76.44;96347.16;5135064;27;20440;-55
2022/10/27 05:46:09;;;;;;;5.10;0.77;;;;;;;14.65;75.83;96347.13;5135224;27;20922;-55
2022/10/27 05:48:38;;;;;;;0.67;0.67;;;;;;;14.85;74.12;96352.41;5135178;27;20432;-55
2022/10/27 05:51:06;;;;;;;3.50;1.17;;;;;;;14.38;73.34;96291.38;5133689;27;20430;-56
2022/10/27 05:53:35;;;;;;;0.43;0.40;;;;;;;14.82;73.95;96352.94;5132693;27;20433;-56
2022/10/27 05:56:03;;;;;;;1.60;1.43;;;;;;;14.98;73.77;96349.97;5132958;27;20481;-56
2022/10/27 05:58:33;;;;;;;2.90;0.57;;;;;;;14.91;73.21;96349.44;5133077;27;20421;-55
2022/10/27 06:01:01;;;;;;;1.57;1.17;;;;;;;15.23;71.55;96346.41;5132999;27;20435;-55
2022/10/27 06:03:30;;;;;;;0.40;0.37;;;;;;;15.43;70.56;96350.88;5133427;27;20434;-56
2022/10/27 06:06:02;;;;;;;0.93;0.90;;;;;;;15.21;70.46;96357.38;5133562;27;20785;-56
2022/10/27 06:08:30;;;;;;;10.50;1.30;;;;;;;14.99;70.80;96361.44;5132466;27;20793;-57
2022/10/27 06:10:59;;;;;;;1.97;1.87;;;;;;;14.95;71.49;96358.50;5133132;27;20498;-57
2022/10/27 06:13:27;;;;;;;6.43;1.20;;;;;;;14.95;71.69;96366.50;5132356;27;20422;-57
2022/10/27 06:15:58;;;;;;;1.60;1.50;;;;;;;15.18;71.61;96368.59;5133602;27;20438;-57
2022/10/27 06:18:27;;;;;;;0.73;0.73;;;;;;;15.65;69.64;96373.50;5133820;27;20432;-57
2022/10/27 06:20:55;;;;;;;0.63;0.63;;;;;;;15.69;69.33;96381.75;5133651;27;20434;-57
2022/10/27 06:23:23;;;;;;;0.70;0.70;;;;;;;16.09;68.45;96378.84;5134395;27;20449;-57
2022/10/27 06:25:52;;;;;;;1.00;0.80;;;;;;;16.26;67.83;96384.63;5134019;27;20473;-57
2022/10/27 06:28:21;;;;;;;0.47;0.33;;;;;;;16.20;66.89;96384.94;5134434;27;20414;-57
2022/10/27 06:30:49;;;;;;;0.63;0.47;;;;;;;16.26;66.73;96371.25;5134406;27;20434;-57
2022/10/27 06:33:19;;;;;;;0.60;0.60;;;;;;;16.44;66.82;96388.50;5133960;27;20440;-57
2022/10/27 06:35:47;;;;;;;0.40;0.30;;;;;;;17.03;64.39;96380.22;5133063;27;20433;-57
2022/10/27 06:38:16;;;;;;;1.30;1.23;;;;;;;16.21;67.35;96390.03;5134052;27;20481;-58
2022/10/27 06:40:45;;;;;;;0.50;0.40;;;;;;;16.29;66.69;96396.66;5134311;27;20809;-58
2022/10/27 06:43:13;;;;;;;1.63;1.53;;;;;;;16.30;66.18;96401.72;5134361;27;20426;-58
2022/10/27 06:45:46;;;;;;;3.07;2.00;;;;;;;16.71;65.01;96399.56;5133931;27;20455;-57
2022/10/27 06:48:15;;;;;;;2.70;2.50;;;;;;;17.53;62.96;96381.59;5134072;27;20863;-57
2022/10/27 06:50:45;;;;;;;0.60;0.40;;;;;;;17.18;61.50;96254.13;5133653;27;20434;-58
2022/10/27 06:53:14;;;;;;;0.50;0.40;;;;;;;18.69;59.31;96391.47;5133427;27;20434;-58
2022/10/27 06:55:42;;;;;;;0.90;0.80;;;;;;;18.61;59.62;96389.44;5133635;27;20423;-59
2022/10/27 06:58:11;;;;;;;1.47;0.50;;;;;;;18.62;60.00;96376.81;5132111;27;20488;-59
2022/10/27 07:00:40;;;;;;;0.60;0.40;;;;;;;18.88;58.98;96400.25;5132855;27;20930;-59
2022/10/27 07:03:09;;;;;;;0.77;0.77;;;;;;;18.30;59.15;96401.69;5133926;27;20450;-59
2022/10/27 07:05:39;;;;;;;0.63;0.63;;;;;;;17.20;61.93;96410.06;5132447;27;20427;-59
2022/10/27 07:08:09;;;;;;;0.70;0.70;;;;;;;16.63;63.14;96369.91;5133883;27;20415;-52
2022/10/27 07:10:37;;;;;;;0.60;0.40;;;;;;;16.71;64.49;96412.13;5133416;27;20430;-51
2022/10/27 07:13:05;;;;;;;0.57;0.57;;;;;;;17.40;62.58;96417.88;5133314;27;20430;-52
2022/10/27 07:15:37;;;;;;;0.40;0.30;;;;;;;17.61;62.25;96397.81;5133383;27;20457;-51
2022/10/27 07:18:08;;;;;;;0.50;0.37;;;;;;;17.80;61.45;96405.91;5133115;27;20485;-52
2022/10/27 07:20:38;;;;;;;0.40;0.30;;;;;;;17.90;61.35;96408.44;5132655;27;20438;-52
2022/10/27 07:23:10;;;;;;;0.57;0.47;;;;;;;18.45;60.30;96393.41;5133067;27;20803;-52
2022/10/27 07:25:39;;;;;;;1.27;0.60;;;;;;;18.32;59.19;96337.78;5132591;27;20474;-53
2022/10/27 07:28:07;;;;;;;1.40;1.30;;;;;;;19.56;58.16;96399.53;5133218;27;20431;-52
2022/10/27 07:30:38;;;;;;;0.70;0.70;;;;;;;20.30;55.78;96405.53;5133225;27;20423;-51
2022/10/27 07:33:07;;;;;;;1.50;1.40;;;;;;;20.69;54.34;96398.41;5133131;27;20812;-51
2022/10/27 07:35:35;;;;;;;0.67;0.67;;;;;;;20.40;55.01;96397.22;5133104;27;20931;-51
2022/10/27 07:38:03;;;;;;;1.63;1.63;;;;;;;20.74;53.60;96392.09;5131945;27;20481;-51
2022/10/27 07:40:33;;;;;;;1.37;1.27;;;;;;;21.05;52.70;96400.22;5132643;27;20427;-51
2022/10/27 07:43:02;;;;;;;0.60;0.60;;;;;;;21.71;51.49;96396.53;5132451;27;20430;-51
2022/10/27 07:45:36;;;;;;;0.80;0.80;;;;;;;21.76;49.70;96329.72;5132709;27;20475;-52
2022/10/27 07:48:06;;;;;;;0.50;0.50;;;;;;;22.28;49.44;96395.41;5132640;27;20465;-51
2022/10/27 07:50:34;;;;;;;0.80;0.80;;;;;;;22.60;48.03;96386.81;5132395;27;20933;-51
2022/10/27 07:53:03;;;;;;;5.60;0.90;;;;;;;22.90;47.36;96386.94;5132174;27;20487;-50
2022/10/27 07:55:35;;;;;;;1.77;0.70;;;;;;;22.97;47.04;96393.44;5132422;27;20415;-50
2022/10/27 07:58:06;;;;;;;1.10;1.00;;;;;;;23.12;47.02;96395.63;5132287;27;20545;-50
2022/10/27 08:00:36;;;;;;;0.63;0.63;;;;;;;23.54;45.81;96396.63;5132178;27;20943;-54
2022/10/27 08:03:05;;;;;;;6.73;1.27;;;;;;;23.91;44.60;96389.56;5132656;27;20419;-53
2022/10/27 08:05:35;;;;;;;0.90;0.43;;;;;;;24.35;43.90;96390.91;5132337;27;20438;-53
2022/10/27 08:08:06;;;;;;;0.60;0.40;;;;;;;23.58;43.85;96354.25;5131877;27;20438;-53
2022/10/27 08:10:37;;;;;;;0.80;0.80;;;;;;;23.77;44.00;96389.84;5132355;27;20419;-52
2022/10/27 08:13:07;;;;;;;6.00;0.93;;;;;;;23.68;43.89;96394.47;5132173;27;20430;-52
2022/10/27 08:15:36;;;;;;;0.67;0.43;;;;;;;23.58;44.78;96396.78;5132605;27;20802;-52
2022/10/27 08:18:05;;;;;;;0.73;0.73;;;;;;;24.66;43.71;96393.22;5132066;27;20478;-52
2022/10/27 08:20:36;;;;;;;6.83;0.87;;;;;;;24.42;42.93;96397.38;5131792;27;20446;-52
2022/10/27 08:23:06;;;;;;;6.70;2.53;;;;;;;24.61;42.62;96391.50;5132287;27;20427;-52
2022/10/27 08:25:36;;;;;;;0.70;0.70;;;;;;;25.61;40.60;96391.91;5131386;27;20466;-52
2022/10/27 08:28:05;;;;;;;0.50;0.40;;;;;;;26.83;39.13;96392.50;5131917;27;20434;-52
2022/10/27 08:30:34;;;;;;;1.13;0.60;;;;;;;27.04;39.57;96387.66;5132094;27;20431;-52
2022/10/27 08:33:12;;;;;;;0.80;0.80;;;;;;;27.58;37.07;96382.44;5132028;27;20423;-52
2022/10/27 08:35:41;;;;;;;1.43;1.43;;;;;;;27.69;36.88;96380.78;5132324;27;20484;-53
2022/10/27 08:38:12;;;;;;;0.73;0.67;;;;;;;28.78;36.10;96377.00;5131945;27;20466;-52
2022/10/27 08:41:00;;;;;;;0.43;0.40;;;;;;;28.13;35.57;96378.72;5132051;27;20433;-52
2022/10/27 08:44:01;;;;;;;0.40;0.30;;;;;;;28.64;34.95;96360.34;5132356;27;20919;-53
2022/10/27 08:46:38;;;;;;;0.50;0.43;;;;;;;28.33;34.53;96366.69;5132035;27;20427;-53
2022/10/27 08:49:34;;;;;;;0.40;0.40;;;;;;;28.21;37.33;96373.03;5131581;27;20497;-53
2022/10/27 08:52:14;;;;;;;4.60;1.13;;;;;;;28.17;35.90;96363.22;5131936;27;20435;-53
2022/10/27 08:54:48;;;;;;;0.40;0.40;;;;;;;28.42;34.94;96361.81;5132122;27;20422;-53
2022/10/27 08:57:24;;;;;;;1.80;0.60;;;;;;;28.08;35.33;96357.19;5132000;27;20462;-53
2022/10/27 08:59:54;;;;;;;0.50;0.50;;;;;;;28.28;34.32;96358.78;5133623;27;20469;-53
2022/10/27 09:02:49;;;;;;;2.73;0.43;;;;;;;28.28;33.73;96358.78;5136095;27;20422;-53
2022/10/27 09:05:34;;;;;;;0.40;0.30;;;;;;;29.48;32.41;96355.66;5136103;27;20445;-53
2022/10/27 09:08:12;;;;;;;0.40;0.33;;;;;;;29.34;32.01;96349.97;5135901;27;20441;-53
2022/10/27 09:10:44;;;;;;;0.50;0.50;;;;;;;29.77;32.09;96351.44;5135620;27;20433;-53
2022/10/27 09:13:27;;;;;;;3.80;0.43;;;;;;;29.02;33.58;96326.75;5135476;27;20437;-53
2022/10/27 09:15:59;;;;;;;0.60;0.47;;;;;;;28.57;34.18;96339.13;5135665;27;20798;-53
2022/10/27 09:18:33;;;;;;;0.57;0.30;;;;;;;29.42;34.14;96352.44;5135525;27;20465;-53
2022/10/27 09:21:06;;;;;;;7.27;0.90;;;;;;;28.62;33.39;96346.25;5135808;27;20423;-53
2022/10/27 09:23:38;;;;;;;0.70;0.43;;;;;;;27.93;34.19;96347.09;5135958;27;20434;-54
2022/10/27 09:26:07;;;;;;;0.83;0.57;;;;;;;29.12;33.37;96342.53;5135315;27;20480;-53
2022/10/27 09:28:43;;;;;;;0.60;0.60;;;;;;;29.43;32.02;96277.53;5135506;27;20427;-54
2022/10/27 09:31:16;;;;;;;0.60;0.60;;;;;;;30.38;31.12;96334.78;5135350;27;20429;-54
2022/10/27 09:33:51;;;;;;;0.40;0.30;;;;;;;31.12;30.69;96319.97;5135423;27;20427;-54
2022/10/27 09:36:22;;;;;;;3.13;0.60;;;;;;;31.85;30.45;96329.25;5135304;27;20437;-54
2022/10/27 09:38:51;;;;;;;0.70;0.50;;;;;;;30.92;30.28;96328.78;5135124;27;20981;-52
2022/10/27 09:41:19;;;;;;;2.53;1.17;;;;;;;29.46;31.92;96333.38;5135473;27;20422;-54
2022/10/27 09:43:54;;;;;;;2.50;1.60;;;;;;;30.65;30.89;96320.66;5135049;27;20427;-54
2022/10/27 09:46:28;;;;;;;0.80;0.80;;;;;;;31.52;30.53;96321.16;5135081;27;20426;-54
2022/10/27 09:49:01;;;;;;;1.63;1.53;;;;;;;29.64;31.71;96317.28;5135244;27;20427;-53
2022/10/27 09:51:40;;;;;;;0.73;0.70;;;;;;;31.11;30.30;96318.44;5134889;27;20422;-52
2022/10/27 09:54:28;;;;;;;0.57;0.57;;;;;;;31.11;29.81;96260.13;5135121;27;20491;-52
2022/10/27 09:57:04;;;;;;;1.30;0.70;;;;;;;30.56;30.90;96306.47;5134918;27;20443;-52
2022/10/27 09:59:35;;;;;;;0.73;0.73;;;;;;;31.80;30.39;96304.91;5134846;27;20969;-52
2022/10/27 10:02:05;;;;;;;0.40;0.30;;;;;;;32.41;29.48;96299.38;5134677;27;20434;-52
2022/10/27 10:04:36;;;;;;;0.50;0.40;;;;;;;32.57;29.59;96302.63;5135046;27;20450;-52
2022/10/27 10:07:07;;;;;;;3.40;1.03;;;;;;;32.77;28.44;96294.81;5134612;27;20430;-52
2022/10/27 10:09:38;;;;;;;0.30;0.30;;;;;;;33.76;27.27;96298.47;5134617;27;20427;-52
2022/10/27 10:12:27;;;;;;;0.40;0.30;;;;;;;32.95;28.29;96284.66;5134486;27;20501;-51
2022/10/27 10:15:21;;;;;;;0.50;0.37;;;;;;;32.88;27.96;96292.09;5130003;27;20450;-51
2022/10/27 10:17:58;;;;;;;0.47;0.30;;;;;;;34.12;26.32;96290.16;5134385;27;20438;-51
2022/10/27 10:20:32;;;;;;;0.40;0.33;;;;;;;33.14;27.71;96289.03;5134566;27;20863;-51
2022/10/27 10:23:02;;;;;;;0.50;0.50;;;;;;;33.47;26.92;96282.38;5134360;27;20922;-51
2022/10/27 10:25:33;;;;;;;0.67;0.30;;;;;;;33.75;27.02;96283.13;5134188;27;20482;-51
2022/10/27 10:28:04;;;;;;;0.33;0.30;;;;;;;33.20;27.06;96281.97;5134611;27;20422;-51
2022/10/27 10:30:37;;;;;;;4.13;0.47;;;;;;;32.04;28.17;96279.63;5134427;27;20419;-51
2022/10/27 10:33:07;;;;;;;0.83;0.70;;;;;;;31.64;28.78;96277.78;5134117;27;20929;-51
2022/10/27 10:35:44;;;;;;;0.40;0.30;;;;;;;32.91;28.33;96250.13;5134360;27;20441;-52
2022/10/27 10:38:30;;;;;;;22.73;0.50;;;;;;;32.37;28.23;96279.38;5133978;27;20425;-52
2022/10/27 10:41:10;;;;;;;0.53;0.53;;;;;;;32.56;27.39;96215.16;5134138;27;20432;-52
2022/10/27 10:43:39;;;;;;;0.70;0.70;;;;;;;31.80;28.20;96270.03;5133956;27;20441;-52
2022/10/27 10:46:20;;;;;;;0.40;0.30;;;;;;;32.47;28.07;96266.84;5133832;27;20427;-52
2022/10/27 10:48:52;;;;;;;0.40;0.40;;;;;;;32.95;27.87;96259.94;5134113;27;20426;-51
2022/10/27 10:51:26;;;;;;;5.33;0.63;;;;;;;32.29;28.59;96258.56;5133272;27;20435;-51
2022/10/27 10:53:59;;;;;;;0.80;0.60;;;;;;;32.55;28.28;96255.56;5133451;27;20185;-51
2022/10/27 10:56:30;;;;;;;0.40;0.40;;;;;;;33.70;26.75;96253.28;5133820;27;20449;-51
2022/10/27 10:59:07;;;;;;;1.17;0.50;;;;;;;33.66;27.15;96252.53;5133410;27;20205;-52
2022/10/27 11:01:47;;;;;;;1.47;0.83;;;;;;;33.96;27.26;96249.31;5133449;27;20193;-52
2022/10/27 11:04:20;;;;;;;3.10;0.50;;;;;;;33.99;27.09;96253.22;5133156;27;20433;-50
2022/10/27 11:07:05;;;;;;;0.47;0.30;;;;;;;34.22;26.42;96239.81;5133360;27;20188;-51
2022/10/27 11:09:39;;;;;;;0.50;0.40;;;;;;;34.80;25.53;96198.59;5133542;27;20521;-51
2022/10/27 11:12:20;;;;;;;0.50;0.30;;;;;;;35.09;25.42;96227.53;5133228;27;20191;-50
2022/10/27 11:14:50;;;;;;;0.40;0.40;;;;;;;35.01;25.24;96230.72;5133263;27;20624;-51
2022/10/27 11:17:25;;;;;;;0.40;0.30;;;;;;;34.05;26.11;96232.38;5133490;27;20285;-51
2022/10/27 11:19:54;;;;;;;0.40;0.30;;;;;;;33.89;27.03;96221.81;5132864;27;20582;-51
2022/10/27 11:22:26;;;;;;;0.50;0.50;;;;;;;34.59;26.78;96231.00;5132520;27;20185;-51
2022/10/27 11:25:03;;;;;;;0.77;0.70;;;;;;;34.76;26.21;96225.38;5132912;27;20228;-51
2022/10/27 11:27:40;;;;;;;2.30;0.50;;;;;;;35.03;25.92;96211.81;5133392;27;20192;-53
2022/10/27 11:30:20;;;;;;;0.30;0.30;;;;;;;33.03;26.88;96214.03;5132826;27;20185;-52
2022/10/27 11:33:00;;;;;;;0.97;0.97;;;;;;;31.99;28.63;96216.91;5132784;27;20189;-52
2022/10/27 11:35:34;;;;;;;0.40;0.40;;;;;;;32.46;27.86;96215.91;5132849;27;20185;-52
2022/10/27 11:38:05;;;;;;;0.37;0.30;;;;;;;32.29;28.52;96211.13;5132606;27;20192;-51
2022/10/27 11:40:44;;;;;;;1.00;0.63;;;;;;;32.55;28.06;96205.34;5132845;27;20553;-51
2022/10/27 11:43:21;;;;;;;0.37;0.30;;;;;;;32.80;27.92;96205.38;5132769;27;20184;-52
2022/10/27 11:45:55;;;;;;;1.07;0.40;;;;;;;32.87;28.22;96199.88;5132417;27;20517;-52
2022/10/27 11:48:33;;;;;;;0.40;0.40;;;;;;;32.09;28.45;96196.16;5132639;27;20433;-52
2022/10/27 11:51:06;;;;;;;0.30;0.30;;;;;;;33.84;26.70;96198.25;5132627;27;20434;-52
2022/10/27 11:53:35;;;;;;;0.40;0.30;;;;;;;34.51;26.24;96185.41;5132797;27;20652;-52
2022/10/27 11:56:25;;;;;;;4.13;0.60;;;;;;;33.42;27.78;96189.31;5132377;27;20417;-52